sensor_id;sensor_type;location;lat;lon;timestamp;P1;durP1;ratioP1;P2;durP2;ratioP2
46651;SDS011;32377;52.182;5.398;2023-04-01T00:00:22;44.78;;;16.48;;
46651;SDS011;32377;52.182;5.398;2023-04-01T00:02:48;38.65;;;16.90;;
46651;SDS011;32377;52.182;5.398;2023-04-01T00:05:14;38.85;;;16.40;;
46651;SDS011;32377;52.182;5.398;2023-04-01T00:07:41;44.30;;;15.82;;
46651;SDS011;32377;52.182;5.398;2023-04-01T00:10:07;40.88;;;17.20;;
46651;SDS011;32377;52.182;5.398;2023-04-01T00:12:35;39.03;;;16.65;;
46651;SDS011;32377;52.182;5.398;2023-04-01T00:15:01;48.78;;;17.63;;
46651;SDS011;32377;52.182;5.398;2023-04-01T00:17:28;48.03;;;16.05;;
46651;SDS011;32377;52.182;5.398;2023-04-01T00:19:56;46.28;;;15.60;;
46651;SDS011;32377;52.182;5.398;2023-04-01T00:22:22;42.28;;;15.80;;
46651;SDS011;32377;52.182;5.398;2023-04-01T00:24:49;38.92;;;15.43;;
46651;SDS011;32377;52.182;5.398;2023-04-01T00:27:15;44.72;;;15.70;;
46651;SDS011;32377;52.182;5.398;2023-04-01T00:29:41;37.72;;;15.38;;
46651;SDS011;32377;52.182;5.398;2023-04-01T00:32:08;41.90;;;15.38;;
46651;SDS011;32377;52.182;5.398;2023-04-01T00:34:33;40.25;;;15.15;;
46651;SDS011;32377;52.182;5.398;2023-04-01T00:36:59;35.78;;;14.57;;
46651;SDS011;32377;52.182;5.398;2023-04-01T00:39:25;39.17;;;15.75;;
46651;SDS011;32377;52.182;5.398;2023-04-01T00:41:54;41.17;;;14.18;;
46651;SDS011;32377;52.182;5.398;2023-04-01T00:44:22;43.40;;;14.43;;
46651;SDS011;32377;52.182;5.398;2023-04-01T00:46:54;47.20;;;15.38;;
46651;SDS011;32377;52.182;5.398;2023-04-01T00:49:22;46.92;;;15.52;;
46651;SDS011;32377;52.182;5.398;2023-04-01T00:51:52;45.65;;;16.73;;
46651;SDS011;32377;52.182;5.398;2023-04-01T00:54:21;40.80;;;15.40;;
46651;SDS011;32377;52.182;5.398;2023-04-01T00:57:12;44.15;;;15.70;;
46651;SDS011;32377;52.182;5.398;2023-04-01T00:59:42;43.25;;;16.17;;
46651;SDS011;32377;52.182;5.398;2023-04-01T01:02:10;36.75;;;14.90;;
46651;SDS011;32377;52.182;5.398;2023-04-01T01:04:37;43.20;;;15.80;;
46651;SDS011;32377;52.182;5.398;2023-04-01T01:12:36;43.95;;;18.15;;
46651;SDS011;32377;52.182;5.398;2023-04-01T01:15:23;38.63;;;17.05;;
46651;SDS011;32377;52.182;5.398;2023-04-01T01:29:16;37.78;;;12.93;;
46651;SDS011;32377;52.182;5.398;2023-04-01T01:37:32;25.25;;;9.55;;
46651;SDS011;32377;52.182;5.398;2023-04-01T01:39:59;22.73;;;9.07;;
46651;SDS011;32377;52.182;5.398;2023-04-01T01:42:28;19.38;;;7.85;;
46651;SDS011;32377;52.182;5.398;2023-04-01T01:44:56;17.50;;;8.73;;
46651;SDS011;32377;52.182;5.398;2023-04-01T01:47:24;20.02;;;8.75;;
46651;SDS011;32377;52.182;5.398;2023-04-01T01:49:51;18.80;;;8.32;;
46651;SDS011;32377;52.182;5.398;2023-04-01T01:52:19;20.38;;;8.82;;
46651;SDS011;32377;52.182;5.398;2023-04-01T01:54:47;19.73;;;8.70;;
46651;SDS011;32377;52.182;5.398;2023-04-01T01:57:14;15.35;;;7.70;;
46651;SDS011;32377;52.182;5.398;2023-04-01T01:59:41;15.50;;;7.88;;
46651;SDS011;32377;52.182;5.398;2023-04-01T02:02:08;16.63;;;7.88;;
46651;SDS011;32377;52.182;5.398;2023-04-01T02:04:37;20.50;;;7.97;;
46651;SDS011;32377;52.182;5.398;2023-04-01T02:07:07;16.35;;;6.85;;
46651;SDS011;32377;52.182;5.398;2023-04-01T02:09:37;10.50;;;6.60;;
46651;SDS011;32377;52.182;5.398;2023-04-01T02:12:07;11.68;;;5.88;;
46651;SDS011;32377;52.182;5.398;2023-04-01T02:14:37;12.68;;;6.10;;
46651;SDS011;32377;52.182;5.398;2023-04-01T02:17:18;17.50;;;6.85;;
46651;SDS011;32377;52.182;5.398;2023-04-01T02:22:18;10.98;;;6.13;;
46651;SDS011;32377;52.182;5.398;2023-04-01T02:25:01;13.77;;;6.47;;
46651;SDS011;32377;52.182;5.398;2023-04-01T02:27:33;14.52;;;6.35;;
46651;SDS011;32377;52.182;5.398;2023-04-01T02:29:59;13.68;;;5.88;;
46651;SDS011;32377;52.182;5.398;2023-04-01T02:32:24;14.10;;;5.40;;
46651;SDS011;32377;52.182;5.398;2023-04-01T02:34:52;19.08;;;6.82;;
46651;SDS011;32377;52.182;5.398;2023-04-01T02:37:18;14.88;;;6.03;;
46651;SDS011;32377;52.182;5.398;2023-04-01T02:39:43;14.55;;;6.95;;
46651;SDS011;32377;52.182;5.398;2023-04-01T02:42:09;15.63;;;7.32;;
46651;SDS011;32377;52.182;5.398;2023-04-01T02:44:35;11.38;;;7.22;;
46651;SDS011;32377;52.182;5.398;2023-04-01T02:47:01;18.60;;;7.75;;
46651;SDS011;32377;52.182;5.398;2023-04-01T02:49:26;17.08;;;8.20;;
46651;SDS011;32377;52.182;5.398;2023-04-01T02:51:52;12.93;;;7.63;;
46651;SDS011;32377;52.182;5.398;2023-04-01T02:54:20;16.60;;;8.38;;
46651;SDS011;32377;52.182;5.398;2023-04-01T02:56:46;15.48;;;7.80;;
46651;SDS011;32377;52.182;5.398;2023-04-01T02:59:12;13.45;;;8.20;;
46651;SDS011;32377;52.182;5.398;2023-04-01T03:01:37;13.70;;;7.90;;
46651;SDS011;32377;52.182;5.398;2023-04-01T03:04:03;16.02;;;7.55;;
46651;SDS011;32377;52.182;5.398;2023-04-01T03:06:29;15.65;;;6.82;;
46651;SDS011;32377;52.182;5.398;2023-04-01T03:08:55;14.77;;;6.97;;
46651;SDS011;32377;52.182;5.398;2023-04-01T03:11:20;13.13;;;6.95;;
46651;SDS011;32377;52.182;5.398;2023-04-01T03:13:46;11.80;;;6.57;;
46651;SDS011;32377;52.182;5.398;2023-04-01T03:16:12;14.05;;;6.85;;
46651;SDS011;32377;52.182;5.398;2023-04-01T03:18:38;12.05;;;6.90;;
46651;SDS011;32377;52.182;5.398;2023-04-01T03:21:16;12.75;;;7.63;;
46651;SDS011;32377;52.182;5.398;2023-04-01T03:23:43;19.25;;;8.50;;
46651;SDS011;32377;52.182;5.398;2023-04-01T03:26:09;19.75;;;9.82;;
46651;SDS011;32377;52.182;5.398;2023-04-01T03:28:35;21.80;;;9.82;;
46651;SDS011;32377;52.182;5.398;2023-04-01T03:31:00;23.67;;;11.50;;
46651;SDS011;32377;52.182;5.398;2023-04-01T03:33:26;28.17;;;12.95;;
46651;SDS011;32377;52.182;5.398;2023-04-01T03:35:52;26.08;;;13.35;;
46651;SDS011;32377;52.182;5.398;2023-04-01T03:38:17;23.35;;;12.77;;
46651;SDS011;32377;52.182;5.398;2023-04-01T03:40:43;27.08;;;13.82;;
46651;SDS011;32377;52.182;5.398;2023-04-01T03:43:09;26.33;;;14.55;;
46651;SDS011;32377;52.182;5.398;2023-04-01T03:45:40;30.42;;;16.50;;
46651;SDS011;32377;52.182;5.398;2023-04-01T03:48:12;35.00;;;17.13;;
46651;SDS011;32377;52.182;5.398;2023-04-01T03:50:41;35.75;;;17.13;;
46651;SDS011;32377;52.182;5.398;2023-04-01T03:53:08;42.28;;;19.15;;
46651;SDS011;32377;52.182;5.398;2023-04-01T03:55:35;42.35;;;20.70;;
46651;SDS011;32377;52.182;5.398;2023-04-01T03:59:13;50.63;;;23.15;;
46651;SDS011;32377;52.182;5.398;2023-04-01T04:01:39;51.10;;;23.33;;
46651;SDS011;32377;52.182;5.398;2023-04-01T04:04:04;50.92;;;22.02;;
46651;SDS011;32377;52.182;5.398;2023-04-01T04:06:30;51.85;;;21.50;;
46651;SDS011;32377;52.182;5.398;2023-04-01T04:08:57;57.45;;;22.08;;
46651;SDS011;32377;52.182;5.398;2023-04-01T04:11:23;57.28;;;20.38;;
46651;SDS011;32377;52.182;5.398;2023-04-01T04:13:48;47.03;;;20.10;;
46651;SDS011;32377;52.182;5.398;2023-04-01T04:16:15;54.92;;;21.30;;
46651;SDS011;32377;52.182;5.398;2023-04-01T04:18:42;50.40;;;20.17;;
46651;SDS011;32377;52.182;5.398;2023-04-01T04:21:10;50.33;;;19.75;;
46651;SDS011;32377;52.182;5.398;2023-04-01T04:23:40;49.35;;;19.42;;
46651;SDS011;32377;52.182;5.398;2023-04-01T04:26:08;52.15;;;20.17;;
46651;SDS011;32377;52.182;5.398;2023-04-01T04:28:35;50.47;;;20.73;;
46651;SDS011;32377;52.182;5.398;2023-04-01T04:31:01;44.35;;;19.23;;
46651;SDS011;32377;52.182;5.398;2023-04-01T04:33:27;41.42;;;17.67;;
46651;SDS011;32377;52.182;5.398;2023-04-01T04:35:55;43.28;;;16.30;;
46651;SDS011;32377;52.182;5.398;2023-04-01T04:38:22;38.45;;;16.83;;
46651;SDS011;32377;52.182;5.398;2023-04-01T04:40:47;37.78;;;16.92;;
46651;SDS011;32377;52.182;5.398;2023-04-01T04:43:14;30.45;;;15.02;;
46651;SDS011;32377;52.182;5.398;2023-04-01T04:45:41;31.40;;;13.32;;
46651;SDS011;32377;52.182;5.398;2023-04-01T04:48:10;31.13;;;13.68;;
46651;SDS011;32377;52.182;5.398;2023-04-01T04:50:41;28.88;;;11.60;;
46651;SDS011;32377;52.182;5.398;2023-04-01T04:53:14;32.55;;;11.07;;
46651;SDS011;32377;52.182;5.398;2023-04-01T04:55:46;23.30;;;10.30;;
46651;SDS011;32377;52.182;5.398;2023-04-01T04:58:13;27.50;;;10.80;;
46651;SDS011;32377;52.182;5.398;2023-04-01T05:00:42;22.25;;;10.63;;
46651;SDS011;32377;52.182;5.398;2023-04-01T05:03:08;22.92;;;11.02;;
46651;SDS011;32377;52.182;5.398;2023-04-01T05:05:35;19.90;;;10.07;;
46651;SDS011;32377;52.182;5.398;2023-04-01T05:08:01;21.02;;;9.82;;
46651;SDS011;32377;52.182;5.398;2023-04-01T05:10:27;22.73;;;10.75;;
46651;SDS011;32377;52.182;5.398;2023-04-01T05:12:52;21.13;;;10.82;;
46651;SDS011;32377;52.182;5.398;2023-04-01T05:15:20;24.15;;;11.45;;
46651;SDS011;32377;52.182;5.398;2023-04-01T05:17:46;28.00;;;12.02;;
46651;SDS011;32377;52.182;5.398;2023-04-01T05:20:12;23.50;;;12.70;;
46651;SDS011;32377;52.182;5.398;2023-04-01T05:22:39;25.40;;;13.32;;
46651;SDS011;32377;52.182;5.398;2023-04-01T05:25:05;27.90;;;13.15;;
46651;SDS011;32377;52.182;5.398;2023-04-01T05:27:31;23.55;;;11.68;;
46651;SDS011;32377;52.182;5.398;2023-04-01T05:29:56;25.85;;;11.80;;
46651;SDS011;32377;52.182;5.398;2023-04-01T05:32:22;26.25;;;11.98;;
46651;SDS011;32377;52.182;5.398;2023-04-01T05:34:51;22.42;;;12.10;;
46651;SDS011;32377;52.182;5.398;2023-04-01T05:37:17;22.50;;;10.82;;
46651;SDS011;32377;52.182;5.398;2023-04-01T05:39:43;20.58;;;11.18;;
46651;SDS011;32377;52.182;5.398;2023-04-01T05:42:08;22.83;;;11.02;;
46651;SDS011;32377;52.182;5.398;2023-04-01T05:44:34;19.05;;;9.45;;
46651;SDS011;32377;52.182;5.398;2023-04-01T05:47:01;21.35;;;10.82;;
46651;SDS011;32377;52.182;5.398;2023-04-01T05:49:27;18.23;;;8.90;;
46651;SDS011;32377;52.182;5.398;2023-04-01T05:51:53;20.08;;;9.63;;
46651;SDS011;32377;52.182;5.398;2023-04-01T05:54:19;17.27;;;8.63;;
46651;SDS011;32377;52.182;5.398;2023-04-01T05:56:45;16.80;;;8.50;;
46651;SDS011;32377;52.182;5.398;2023-04-01T05:59:11;17.77;;;8.45;;
46651;SDS011;32377;52.182;5.398;2023-04-01T06:01:36;19.15;;;9.52;;
46651;SDS011;32377;52.182;5.398;2023-04-01T06:04:02;20.15;;;9.90;;
46651;SDS011;32377;52.182;5.398;2023-04-01T06:06:29;21.38;;;10.27;;
46651;SDS011;32377;52.182;5.398;2023-04-01T06:09:13;27.73;;;11.57;;
46651;SDS011;32377;52.182;5.398;2023-04-01T06:11:59;25.67;;;11.45;;
46651;SDS011;32377;52.182;5.398;2023-04-01T06:20:42;23.27;;;11.05;;
46651;SDS011;32377;52.182;5.398;2023-04-01T06:31:47;24.95;;;10.13;;
46651;SDS011;32377;52.182;5.398;2023-04-01T06:37:07;21.10;;;9.07;;
46651;SDS011;32377;52.182;5.398;2023-04-01T06:42:24;14.13;;;6.38;;
46651;SDS011;32377;52.182;5.398;2023-04-01T06:55:50;6.28;;;3.40;;
46651;SDS011;32377;52.182;5.398;2023-04-01T06:58:26;7.90;;;3.90;;
46651;SDS011;32377;52.182;5.398;2023-04-01T07:00:59;9.38;;;5.05;;
46651;SDS011;32377;52.182;5.398;2023-04-01T07:03:35;9.88;;;5.50;;
46651;SDS011;32377;52.182;5.398;2023-04-01T07:06:05;12.32;;;6.10;;
46651;SDS011;32377;52.182;5.398;2023-04-01T07:08:51;9.77;;;5.57;;
46651;SDS011;32377;52.182;5.398;2023-04-01T07:11:26;10.85;;;5.82;;
46651;SDS011;32377;52.182;5.398;2023-04-01T07:16:48;12.30;;;6.85;;
46651;SDS011;32377;52.182;5.398;2023-04-01T07:22:39;14.65;;;8.55;;
46651;SDS011;32377;52.182;5.398;2023-04-01T07:25:24;17.15;;;9.07;;
46651;SDS011;32377;52.182;5.398;2023-04-01T07:28:00;19.55;;;9.52;;
46651;SDS011;32377;52.182;5.398;2023-04-01T07:30:28;20.23;;;10.15;;
46651;SDS011;32377;52.182;5.398;2023-04-01T07:33:10;20.45;;;11.20;;
46651;SDS011;32377;52.182;5.398;2023-04-01T07:35:55;23.30;;;11.40;;
46651;SDS011;32377;52.182;5.398;2023-04-01T07:43:37;21.45;;;11.60;;
46651;SDS011;32377;52.182;5.398;2023-04-01T07:51:23;21.30;;;11.07;;
46651;SDS011;32377;52.182;5.398;2023-04-01T07:54:03;21.23;;;11.27;;
46651;SDS011;32377;52.182;5.398;2023-04-01T07:56:50;25.73;;;12.82;;
46651;SDS011;32377;52.182;5.398;2023-04-01T08:05:17;24.52;;;12.07;;
46651;SDS011;32377;52.182;5.398;2023-04-01T08:16:09;25.35;;;12.05;;
46651;SDS011;32377;52.182;5.398;2023-04-01T08:19:00;25.92;;;12.05;;
46651;SDS011;32377;52.182;5.398;2023-04-01T08:23:56;23.52;;;12.13;;
46651;SDS011;32377;52.182;5.398;2023-04-01T08:31:50;29.27;;;12.35;;
46651;SDS011;32377;52.182;5.398;2023-04-01T08:34:40;26.83;;;12.93;;
46651;SDS011;32377;52.182;5.398;2023-04-01T08:37:09;24.58;;;11.77;;
46651;SDS011;32377;52.182;5.398;2023-04-01T08:39:41;27.15;;;13.80;;
46651;SDS011;32377;52.182;5.398;2023-04-01T08:43:03;27.40;;;13.10;;
46651;SDS011;32377;52.182;5.398;2023-04-01T08:45:16;24.80;;;12.95;;
46651;SDS011;32377;52.182;5.398;2023-04-01T09:01:24;24.70;;;12.50;;
46651;SDS011;32377;52.182;5.398;2023-04-01T09:03:58;19.85;;;10.88;;
46651;SDS011;32377;52.182;5.398;2023-04-01T09:06:48;23.20;;;11.48;;
46651;SDS011;32377;52.182;5.398;2023-04-01T09:12:18;20.27;;;11.10;;
46651;SDS011;32377;52.182;5.398;2023-04-01T09:25:45;15.60;;;9.82;;
46651;SDS011;32377;52.182;5.398;2023-04-01T09:28:34;19.67;;;10.52;;
46651;SDS011;32377;52.182;5.398;2023-04-01T09:37:02;18.80;;;11.25;;
46651;SDS011;32377;52.182;5.398;2023-04-01T09:40:01;20.50;;;12.73;;
46651;SDS011;32377;52.182;5.398;2023-04-01T09:42:44;21.50;;;11.88;;
46651;SDS011;32377;52.182;5.398;2023-04-01T09:53:52;20.65;;;11.88;;
46651;SDS011;32377;52.182;5.398;2023-04-01T09:59:15;20.10;;;11.88;;
46651;SDS011;32377;52.182;5.398;2023-04-01T10:28:06;20.33;;;10.80;;
46651;SDS011;32377;52.182;5.398;2023-04-01T10:50:04;12.77;;;7.32;;
46651;SDS011;32377;52.182;5.398;2023-04-01T11:07:30;5.00;;;4.35;;
46651;SDS011;32377;52.182;5.398;2023-04-01T11:10:25;4.90;;;3.88;;
46651;SDS011;32377;52.182;5.398;2023-04-01T11:21:46;4.32;;;2.70;;
46651;SDS011;32377;52.182;5.398;2023-04-01T11:27:14;2.70;;;2.05;;
46651;SDS011;32377;52.182;5.398;2023-04-01T11:43:51;3.65;;;2.75;;
46651;SDS011;32377;52.182;5.398;2023-04-01T11:49:47;5.22;;;3.83;;
46651;SDS011;32377;52.182;5.398;2023-04-01T11:58:36;13.35;;;8.13;;
46651;SDS011;32377;52.182;5.398;2023-04-01T12:04:35;13.18;;;7.88;;
46651;SDS011;32377;52.182;5.398;2023-04-01T12:07:14;12.02;;;8.23;;
46651;SDS011;32377;52.182;5.398;2023-04-01T12:09:48;14.80;;;8.85;;
46651;SDS011;32377;52.182;5.398;2023-04-01T12:12:29;14.35;;;8.65;;
46651;SDS011;32377;52.182;5.398;2023-04-01T12:20:52;17.45;;;11.15;;
46651;SDS011;32377;52.182;5.398;2023-04-01T12:37:10;25.35;;;14.15;;
46651;SDS011;32377;52.182;5.398;2023-04-01T12:40:09;24.30;;;14.80;;
46651;SDS011;32377;52.182;5.398;2023-04-01T12:43:12;24.83;;;13.82;;
46651;SDS011;32377;52.182;5.398;2023-04-01T12:49:18;22.80;;;13.77;;
46651;SDS011;32377;52.182;5.398;2023-04-01T12:51:53;29.15;;;14.82;;
46651;SDS011;32377;52.182;5.398;2023-04-01T13:08:49;16.55;;;9.90;;
46651;SDS011;32377;52.182;5.398;2023-04-01T13:17:03;15.48;;;9.15;;
46651;SDS011;32377;52.182;5.398;2023-04-01T13:19:56;16.08;;;9.63;;
46651;SDS011;32377;52.182;5.398;2023-04-01T13:22:45;13.98;;;9.43;;
46651;SDS011;32377;52.182;5.398;2023-04-01T13:25:39;15.80;;;9.98;;
46651;SDS011;32377;52.182;5.398;2023-04-01T13:28:14;13.18;;;7.60;;
46651;SDS011;32377;52.182;5.398;2023-04-01T13:31:07;14.98;;;7.80;;
46651;SDS011;32377;52.182;5.398;2023-04-01T13:33:47;11.57;;;6.63;;
46651;SDS011;32377;52.182;5.398;2023-04-01T13:44:37;15.27;;;8.35;;
46651;SDS011;32377;52.182;5.398;2023-04-01T13:50:34;12.88;;;8.68;;
46651;SDS011;32377;52.182;5.398;2023-04-01T13:55:59;14.20;;;9.57;;
46651;SDS011;32377;52.182;5.398;2023-04-01T13:58:53;13.73;;;8.02;;
46651;SDS011;32377;52.182;5.398;2023-04-01T14:01:40;11.15;;;6.95;;
46651;SDS011;32377;52.182;5.398;2023-04-01T14:04:30;14.73;;;7.95;;
46651;SDS011;32377;52.182;5.398;2023-04-01T14:09:50;16.38;;;8.98;;
46651;SDS011;32377;52.182;5.398;2023-04-01T14:12:27;15.50;;;9.85;;
46651;SDS011;32377;52.182;5.398;2023-04-01T14:24:30;14.80;;;9.18;;
46651;SDS011;32377;52.182;5.398;2023-04-01T14:27:18;16.52;;;10.00;;
46651;SDS011;32377;52.182;5.398;2023-04-01T14:30:14;15.73;;;9.15;;
46651;SDS011;32377;52.182;5.398;2023-04-01T14:33:05;12.73;;;8.00;;
46651;SDS011;32377;52.182;5.398;2023-04-01T14:36:04;13.48;;;8.02;;
46651;SDS011;32377;52.182;5.398;2023-04-01T14:41:48;12.65;;;8.52;;
46651;SDS011;32377;52.182;5.398;2023-04-01T14:47:27;13.75;;;9.02;;
46651;SDS011;32377;52.182;5.398;2023-04-01T14:50:17;13.75;;;9.23;;
46651;SDS011;32377;52.182;5.398;2023-04-01T14:58:07;12.40;;;8.40;;
46651;SDS011;32377;52.182;5.398;2023-04-01T15:12:05;11.32;;;8.10;;
46651;SDS011;32377;52.182;5.398;2023-04-01T15:14:57;13.07;;;8.90;;
46651;SDS011;32377;52.182;5.398;2023-04-01T15:18:03;14.73;;;8.82;;
46651;SDS011;32377;52.182;5.398;2023-04-01T15:26:58;11.77;;;7.80;;
46651;SDS011;32377;52.182;5.398;2023-04-01T15:32:16;11.73;;;8.30;;
46651;SDS011;32377;52.182;5.398;2023-04-01T15:34:55;11.77;;;7.80;;
46651;SDS011;32377;52.182;5.398;2023-04-01T15:37:46;13.38;;;6.53;;
46651;SDS011;32377;52.182;5.398;2023-04-01T15:40:20;7.90;;;5.93;;
46651;SDS011;32377;52.182;5.398;2023-04-01T15:48:46;8.00;;;6.03;;
46651;SDS011;32377;52.182;5.398;2023-04-01T15:51:41;8.90;;;6.13;;
46651;SDS011;32377;52.182;5.398;2023-04-01T15:59:22;7.40;;;5.40;;
46651;SDS011;32377;52.182;5.398;2023-04-01T16:04:54;6.95;;;5.25;;
46651;SDS011;32377;52.182;5.398;2023-04-01T16:07:36;8.82;;;6.38;;
46651;SDS011;32377;52.182;5.398;2023-04-01T16:16:07;8.90;;;4.78;;
46651;SDS011;32377;52.182;5.398;2023-04-01T16:23:59;7.25;;;5.20;;
46651;SDS011;32377;52.182;5.398;2023-04-01T16:26:50;7.03;;;5.20;;
46651;SDS011;32377;52.182;5.398;2023-04-01T16:30:00;6.97;;;5.10;;
46651;SDS011;32377;52.182;5.398;2023-04-01T16:38:12;10.02;;;6.95;;
46651;SDS011;32377;52.182;5.398;2023-04-01T16:40:52;12.00;;;8.13;;
46651;SDS011;32377;52.182;5.398;2023-04-01T16:43:28;13.32;;;8.88;;
46651;SDS011;32377;52.182;5.398;2023-04-01T16:51:16;9.73;;;7.57;;
46651;SDS011;32377;52.182;5.398;2023-04-01T16:56:43;10.90;;;8.18;;
46651;SDS011;32377;52.182;5.398;2023-04-01T17:01:53;9.57;;;7.72;;
46651;SDS011;32377;52.182;5.398;2023-04-01T17:04:30;10.45;;;7.43;;
46651;SDS011;32377;52.182;5.398;2023-04-01T17:20:50;8.82;;;6.47;;
46651;SDS011;32377;52.182;5.398;2023-04-01T17:24:00;9.13;;;7.10;;
46651;SDS011;32377;52.182;5.398;2023-04-01T17:27:33;7.80;;;6.15;;
46651;SDS011;32377;52.182;5.398;2023-04-01T17:35:22;8.93;;;6.65;;
46651;SDS011;32377;52.182;5.398;2023-04-01T17:38:08;10.20;;;7.25;;
46651;SDS011;32377;52.182;5.398;2023-04-01T18:02:56;9.73;;;7.85;;
46651;SDS011;32377;52.182;5.398;2023-04-01T18:05:51;10.45;;;8.50;;
46651;SDS011;32377;52.182;5.398;2023-04-01T18:11:54;9.95;;;8.52;;
46651;SDS011;32377;52.182;5.398;2023-04-01T18:14:48;10.25;;;8.25;;
46651;SDS011;32377;52.182;5.398;2023-04-01T18:17:25;10.98;;;8.80;;
46651;SDS011;32377;52.182;5.398;2023-04-01T18:22:54;12.00;;;9.15;;
46651;SDS011;32377;52.182;5.398;2023-04-01T18:25:50;13.90;;;9.75;;
46651;SDS011;32377;52.182;5.398;2023-04-01T18:33:31;12.48;;;9.48;;
46651;SDS011;32377;52.182;5.398;2023-04-01T18:38:44;12.05;;;9.50;;
46651;SDS011;32377;52.182;5.398;2023-04-01T18:41:31;12.82;;;9.48;;
46651;SDS011;32377;52.182;5.398;2023-04-01T18:44:42;15.25;;;9.52;;
46651;SDS011;32377;52.182;5.398;2023-04-01T18:47:15;15.18;;;9.38;;
46651;SDS011;32377;52.182;5.398;2023-04-01T18:52:33;11.23;;;9.20;;
46651;SDS011;32377;52.182;5.398;2023-04-01T18:57:47;12.18;;;10.30;;
46651;SDS011;32377;52.182;5.398;2023-04-01T19:03:34;14.23;;;9.23;;
46651;SDS011;32377;52.182;5.398;2023-04-01T19:06:00;9.88;;;8.35;;
46651;SDS011;32377;52.182;5.398;2023-04-01T19:08:34;10.40;;;8.55;;
46651;SDS011;32377;52.182;5.398;2023-04-01T19:13:58;11.07;;;7.88;;
46651;SDS011;32377;52.182;5.398;2023-04-01T19:16:49;9.18;;;7.55;;
46651;SDS011;32377;52.182;5.398;2023-04-01T19:19:29;11.45;;;9.20;;
46651;SDS011;32377;52.182;5.398;2023-04-01T19:27:52;12.98;;;10.48;;
46651;SDS011;32377;52.182;5.398;2023-04-01T19:30:26;13.82;;;11.00;;
46651;SDS011;32377;52.182;5.398;2023-04-01T19:33:28;17.60;;;11.57;;
46651;SDS011;32377;52.182;5.398;2023-04-01T19:36:03;20.88;;;12.77;;
46651;SDS011;32377;52.182;5.398;2023-04-01T19:38:40;15.65;;;11.80;;
46651;SDS011;32377;52.182;5.398;2023-04-01T19:52:51;16.70;;;12.25;;
46651;SDS011;32377;52.182;5.398;2023-04-01T19:57:59;16.55;;;11.93;;
46651;SDS011;32377;52.182;5.398;2023-04-01T20:00:44;20.67;;;13.23;;
46651;SDS011;32377;52.182;5.398;2023-04-01T20:03:21;19.50;;;12.32;;
46651;SDS011;32377;52.182;5.398;2023-04-01T20:11:58;20.85;;;13.45;;
46651;SDS011;32377;52.182;5.398;2023-04-01T20:20:00;18.90;;;13.30;;
46651;SDS011;32377;52.182;5.398;2023-04-01T20:27:54;20.10;;;13.48;;
46651;SDS011;32377;52.182;5.398;2023-04-01T20:33:37;20.17;;;13.65;;
46651;SDS011;32377;52.182;5.398;2023-04-01T20:42:27;19.17;;;12.63;;
46651;SDS011;32377;52.182;5.398;2023-04-01T20:50:41;15.55;;;11.02;;
46651;SDS011;32377;52.182;5.398;2023-04-01T20:53:29;16.90;;;11.38;;
46651;SDS011;32377;52.182;5.398;2023-04-01T20:56:06;16.10;;;11.52;;
46651;SDS011;32377;52.182;5.398;2023-04-01T20:59:03;14.50;;;11.68;;
46651;SDS011;32377;52.182;5.398;2023-04-01T21:05:00;18.58;;;11.10;;
46651;SDS011;32377;52.182;5.398;2023-04-01T21:10:41;17.33;;;12.70;;
46651;SDS011;32377;52.182;5.398;2023-04-01T21:16:08;16.98;;;12.15;;
46651;SDS011;32377;52.182;5.398;2023-04-01T21:36:15;20.48;;;13.23;;
46651;SDS011;32377;52.182;5.398;2023-04-01T21:41:34;21.58;;;14.20;;
46651;SDS011;32377;52.182;5.398;2023-04-01T21:44:48;20.92;;;13.07;;
46651;SDS011;32377;52.182;5.398;2023-04-01T21:58:30;20.90;;;13.52;;
46651;SDS011;32377;52.182;5.398;2023-04-01T22:06:40;20.58;;;14.00;;
46651;SDS011;32377;52.182;5.398;2023-04-01T22:12:27;22.63;;;13.43;;
46651;SDS011;32377;52.182;5.398;2023-04-01T22:17:54;22.38;;;14.57;;
46651;SDS011;32377;52.182;5.398;2023-04-01T22:25:56;22.83;;;14.82;;
46651;SDS011;32377;52.182;5.398;2023-04-01T22:28:34;23.98;;;14.90;;
46651;SDS011;32377;52.182;5.398;2023-04-01T22:31:03;19.15;;;13.88;;
46651;SDS011;32377;52.182;5.398;2023-04-01T22:36:19;25.17;;;15.47;;
46651;SDS011;32377;52.182;5.398;2023-04-01T22:39:04;27.10;;;16.00;;
46651;SDS011;32377;52.182;5.398;2023-04-01T22:49:29;23.27;;;15.60;;
46651;SDS011;32377;52.182;5.398;2023-04-01T22:54:31;31.30;;;16.95;;
46651;SDS011;32377;52.182;5.398;2023-04-01T22:57:09;26.15;;;16.98;;
46651;SDS011;32377;52.182;5.398;2023-04-01T22:59:47;27.67;;;16.70;;
46651;SDS011;32377;52.182;5.398;2023-04-01T23:02:24;33.28;;;17.73;;
46651;SDS011;32377;52.182;5.398;2023-04-01T23:04:59;27.55;;;16.27;;
46651;SDS011;32377;52.182;5.398;2023-04-01T23:12:56;29.52;;;17.75;;
46651;SDS011;32377;52.182;5.398;2023-04-01T23:15:24;29.05;;;16.95;;
46651;SDS011;32377;52.182;5.398;2023-04-01T23:25:30;38.08;;;18.25;;
46651;SDS011;32377;52.182;5.398;2023-04-01T23:28:17;31.20;;;17.95;;
46651;SDS011;32377;52.182;5.398;2023-04-01T23:35:46;33.53;;;18.88;;
46651;SDS011;32377;52.182;5.398;2023-04-01T23:38:36;31.10;;;18.08;;
46651;SDS011;32377;52.182;5.398;2023-04-01T23:41:06;34.20;;;17.45;;
46651;SDS011;32377;52.182;5.398;2023-04-01T23:43:42;30.70;;;18.48;;
46651;SDS011;32377;52.182;5.398;2023-04-01T23:46:10;30.45;;;17.55;;
46651;SDS011;32377;52.182;5.398;2023-04-01T23:48:38;33.00;;;18.23;;
46651;SDS011;32377;52.182;5.398;2023-04-01T23:54:05;33.50;;;18.25;;
46651;SDS011;32377;52.182;5.398;2023-04-01T23:56:38;31.70;;;17.60;;
46651;SDS011;32377;52.182;5.398;2023-04-01T23:59:11;34.28;;;18.55;;
